createdAt,value
2022-10-14T00:01:15.769Z,9.85
2022-10-14T00:04:48.006Z,9.78
2022-10-14T00:08:14.642Z,9.74
2022-10-14T00:11:41.931Z,9.68
2022-10-14T00:15:11.060Z,9.61
2022-10-14T00:18:37.595Z,9.52
2022-10-14T00:22:04.510Z,9.49
2022-10-14T00:25:31.363Z,9.46
2022-10-14T00:28:59.747Z,9.43
2022-10-14T00:32:30.486Z,9.43
2022-10-14T00:35:59.567Z,9.45
2022-10-14T00:39:30.635Z,9.48
2022-10-14T00:42:57.621Z,9.51
2022-10-14T00:46:24.644Z,9.51
2022-10-14T00:49:55.421Z,9.53
2022-10-14T00:53:23.089Z,9.55
2022-10-14T00:56:51.777Z,9.56
2022-10-14T01:00:22.291Z,9.57
2022-10-14T01:03:49.882Z,9.55
2022-10-14T01:07:32.980Z,9.52
2022-10-14T01:11:08.960Z,9.46
2022-10-14T01:14:46.239Z,9.41
2022-10-14T01:18:28.659Z,9.37
2022-10-14T01:22:03.425Z,9.32
2022-10-14T01:25:35.199Z,9.29
2022-10-14T01:29:16.785Z,9.29
2022-10-14T01:32:52.028Z,9.31
2022-10-14T01:36:24.066Z,9.31
2022-10-14T01:39:55.919Z,9.36
2022-10-14T01:43:25.845Z,9.40
2022-10-14T01:46:56.490Z,9.45
2022-10-14T01:50:25.765Z,9.51
2022-10-14T01:53:59.297Z,9.54
2022-10-14T01:57:29.168Z,9.54
2022-10-14T02:00:57.582Z,9.59
2022-10-14T02:04:25.178Z,9.62
2022-10-14T02:07:58.941Z,9.63
2022-10-14T02:11:26.853Z,9.62
2022-10-14T02:15:02.403Z,9.59
2022-10-14T02:18:37.033Z,9.56
2022-10-14T02:22:10.342Z,9.51
2022-10-14T02:25:40.369Z,9.45
2022-10-14T02:29:08.682Z,9.39
2022-10-14T02:32:36.895Z,9.35
2022-10-14T02:36:06.886Z,9.31
2022-10-14T02:39:40.522Z,9.29
2022-10-14T02:43:10.452Z,9.29
2022-10-14T02:46:37.517Z,9.28
2022-10-14T02:50:04.461Z,9.29
2022-10-14T02:53:31.988Z,9.33
2022-10-14T02:56:58.419Z,9.36
2022-10-14T03:00:25.279Z,9.35
2022-10-14T03:03:53.906Z,9.34
2022-10-14T03:07:22.634Z,9.31
2022-10-14T03:10:51.054Z,9.26
2022-10-14T03:14:18.066Z,9.21
2022-10-14T03:17:45.717Z,9.16
2022-10-14T03:21:12.714Z,9.10
2022-10-14T03:24:40.967Z,9.04
2022-10-14T03:28:23.790Z,8.97
2022-10-14T03:32:12.555Z,8.92
2022-10-14T03:36:09.412Z,8.86
2022-10-14T03:39:42.952Z,8.85
2022-10-14T03:43:09.597Z,8.83
2022-10-14T03:46:43.513Z,8.84
2022-10-14T03:50:11.700Z,8.84
2022-10-14T03:53:48.151Z,8.87
2022-10-14T03:57:18.406Z,8.88
2022-10-14T04:00:49.952Z,8.89
2022-10-14T04:04:26.025Z,8.95
2022-10-14T04:07:52.863Z,8.99
2022-10-14T04:11:19.847Z,9.03
2022-10-14T04:14:48.091Z,9.07
2022-10-14T04:18:14.931Z,9.07
2022-10-14T04:21:42.225Z,9.05
2022-10-14T04:25:11.456Z,9.02
2022-10-14T04:28:39.061Z,8.99
2022-10-14T04:32:13.461Z,8.91
2022-10-14T04:35:42.847Z,8.89
2022-10-14T04:39:16.308Z,8.86
2022-10-14T04:42:43.602Z,8.85
2022-10-14T04:46:18.716Z,8.83
2022-10-14T04:49:45.686Z,8.84
2022-10-14T04:53:21.769Z,8.85
2022-10-14T04:56:59.263Z,8.86
2022-10-14T05:00:26.335Z,8.88
2022-10-14T05:04:01.500Z,8.90
2022-10-14T05:07:32.780Z,8.90
2022-10-14T05:11:08.643Z,8.90
2022-10-14T05:14:40.928Z,8.86
2022-10-14T05:18:15.919Z,8.81
2022-10-14T05:21:57.612Z,8.77
2022-10-14T05:25:31.326Z,8.73
2022-10-14T05:28:58.932Z,8.66
2022-10-14T05:32:25.943Z,8.60
2022-10-14T05:36:00.037Z,8.55
2022-10-14T05:39:29.577Z,8.51
2022-10-14T05:42:57.245Z,8.50
2022-10-14T05:46:24.106Z,8.49
2022-10-14T05:49:53.686Z,8.50
2022-10-14T05:53:20.736Z,8.54
2022-10-14T05:56:49.086Z,8.61
2022-10-14T06:00:24.671Z,8.67
2022-10-14T06:03:54.848Z,8.77
2022-10-14T06:07:21.377Z,8.88
2022-10-14T06:10:48.124Z,8.96
2022-10-14T06:14:15.727Z,9.04
2022-10-14T06:17:43.710Z,9.10
2022-10-14T06:21:12.167Z,9.13
2022-10-14T06:24:39.353Z,9.16
2022-10-14T06:28:10.251Z,9.21
2022-10-14T06:31:36.696Z,9.25
2022-10-14T06:35:03.803Z,9.27
2022-10-14T06:38:30.248Z,9.27
2022-10-14T06:41:56.928Z,9.27
2022-10-14T06:45:23.705Z,9.30
2022-10-14T06:48:51.182Z,9.37
2022-10-14T06:52:20.229Z,9.44
2022-10-14T06:55:48.366Z,9.51
2022-10-14T06:59:20.235Z,9.57
2022-10-14T07:02:49.912Z,9.67
2022-10-14T07:06:17.271Z,9.73
2022-10-14T07:09:43.703Z,9.83
2022-10-14T07:13:12.023Z,9.89
2022-10-14T07:16:38.760Z,9.96
2022-10-14T07:20:06.042Z,10.01
2022-10-14T07:23:32.770Z,10.06
2022-10-14T07:26:59.246Z,10.09
2022-10-14T07:30:26.202Z,10.12
2022-10-14T07:33:53.130Z,10.17
2022-10-14T07:37:20.561Z,10.25
2022-10-14T07:40:47.485Z,10.28
2022-10-14T07:44:17.033Z,10.32
2022-10-14T07:47:43.594Z,10.39
2022-10-14T07:51:10.626Z,10.49
2022-10-14T07:54:36.911Z,10.57
2022-10-14T07:58:03.542Z,10.66
2022-10-14T08:01:30.324Z,10.83
2022-10-14T08:05:18.875Z,10.98
2022-10-14T08:08:46.935Z,11.13
2022-10-14T08:12:14.519Z,11.28
2022-10-14T08:15:43.530Z,11.38
2022-10-14T08:19:15.131Z,11.45
2022-10-14T08:22:41.775Z,11.52
2022-10-14T08:26:21.625Z,11.63
2022-10-14T08:29:55.950Z,11.66
2022-10-14T08:33:24.565Z,11.73
2022-10-14T08:36:51.406Z,11.78
2022-10-14T08:40:19.654Z,11.86
2022-10-14T08:43:52.123Z,12.01
2022-10-14T08:47:23.133Z,12.17
2022-10-14T08:50:57.519Z,12.30
2022-10-14T08:54:32.093Z,12.40
2022-10-14T08:58:05.026Z,12.51
2022-10-14T09:01:36.250Z,12.61
2022-10-14T09:05:05.309Z,12.71
2022-10-14T09:08:40.069Z,12.84
2022-10-14T09:12:13.320Z,12.98
2022-10-14T09:15:43.202Z,13.13
2022-10-14T09:19:20.192Z,13.23
2022-10-14T09:26:30.247Z,13.46
2022-10-14T09:30:03.439Z,13.56
2022-10-14T09:33:29.543Z,13.66
2022-10-14T09:36:59.661Z,13.74
2022-10-14T09:40:33.899Z,13.86
2022-10-14T09:44:11.692Z,13.97
2022-10-14T09:47:51.223Z,14.09
2022-10-14T09:51:25.412Z,14.21
2022-10-14T09:54:54.016Z,14.32
2022-10-14T09:58:27.579Z,14.44
2022-10-14T10:01:57.786Z,14.58
2022-10-14T10:05:29.808Z,14.77
2022-10-14T10:09:01.674Z,14.92
2022-10-14T10:12:41.864Z,15.03
2022-10-14T10:16:20.054Z,15.14
2022-10-14T10:19:48.354Z,15.25
2022-10-14T10:23:26.501Z,15.39
2022-10-14T10:26:53.286Z,15.51
2022-10-14T10:30:27.541Z,15.57
2022-10-14T10:34:02.027Z,15.67
2022-10-14T10:37:38.642Z,15.82
2022-10-14T10:41:27.440Z,15.92
2022-10-14T10:45:18.731Z,16.06
2022-10-14T10:54:38.237Z,16.43
2022-10-14T10:58:20.800Z,16.61
2022-10-14T11:02:04.438Z,16.74
2022-10-14T11:06:05.971Z,16.82
2022-10-14T11:10:52.852Z,16.87
2022-10-14T11:14:34.637Z,17.05
2022-10-14T11:18:05.462Z,17.17
2022-10-14T11:21:41.731Z,17.29
2022-10-14T11:25:22.999Z,17.42
2022-10-14T11:28:57.968Z,17.54
2022-10-14T11:32:32.124Z,17.58
2022-10-14T11:36:13.731Z,17.63
2022-10-14T11:39:50.117Z,17.67
2022-10-14T11:43:32.662Z,17.56
2022-10-14T11:47:04.758Z,17.50
2022-10-14T11:50:38.250Z,17.48
2022-10-14T11:54:11.807Z,17.50
2022-10-14T11:57:42.901Z,17.47
2022-10-14T12:01:20.569Z,17.51
2022-10-14T12:04:53.504Z,17.50
2022-10-14T12:08:28.475Z,17.44
2022-10-14T12:12:03.178Z,17.39
2022-10-14T12:19:02.369Z,17.38
2022-10-14T12:22:31.923Z,17.35
2022-10-14T12:26:08.296Z,17.34
2022-10-14T12:29:38.810Z,17.42
2022-10-14T12:33:08.228Z,17.45
2022-10-14T12:40:27.626Z,17.64
2022-10-14T12:44:04.815Z,17.69
2022-10-14T12:47:35.445Z,17.68
2022-10-14T12:51:22.363Z,17.66
2022-10-14T12:58:27.372Z,17.59
2022-10-14T13:02:02.223Z,17.52
2022-10-14T13:05:35.180Z,17.45
2022-10-14T13:09:17.799Z,17.39
2022-10-14T13:12:47.605Z,17.31
2022-10-14T13:17:06.057Z,17.29
2022-10-14T13:20:54.061Z,17.39
2022-10-14T13:24:27.048Z,17.47
2022-10-14T13:27:59.185Z,17.46
2022-10-14T13:31:32.227Z,17.50
2022-10-14T13:35:08.889Z,17.57
2022-10-14T13:38:36.619Z,17.65
2022-10-14T13:42:04.711Z,17.69
2022-10-14T13:45:41.144Z,17.72
2022-10-14T13:52:55.200Z,17.74
2022-10-14T13:56:26.764Z,17.70
2022-10-14T14:03:44.779Z,17.66
2022-10-14T14:07:47.695Z,17.66
2022-10-14T14:11:16.637Z,17.64
2022-10-14T14:14:47.264Z,17.63
2022-10-14T14:21:48.540Z,17.66
2022-10-14T14:25:33.422Z,17.62
2022-10-14T14:29:05.257Z,17.59
2022-10-14T14:32:34.562Z,17.52
2022-10-14T14:36:03.459Z,17.46
2022-10-14T14:39:32.956Z,17.43
2022-10-14T14:43:03.030Z,17.37
2022-10-14T14:46:33.509Z,17.30
2022-10-14T14:50:25.389Z,17.25
2022-10-14T14:53:54.540Z,17.21
2022-10-14T14:57:24.305Z,17.17
2022-10-14T15:00:55.308Z,17.10
2022-10-14T15:04:25.546Z,17.08
2022-10-14T15:07:52.958Z,17.06
2022-10-14T15:11:20.800Z,17.04
2022-10-14T15:14:50.150Z,17.04
2022-10-14T15:18:22.197Z,17.02
2022-10-14T15:22:09.208Z,16.98
2022-10-14T15:25:36.628Z,16.96
2022-10-14T15:29:17.113Z,16.89
2022-10-14T15:32:44.916Z,16.82
2022-10-14T15:36:15.183Z,16.76
2022-10-14T15:39:43.323Z,16.68
2022-10-14T15:43:18.158Z,16.61
2022-10-14T15:47:05.070Z,16.54
2022-10-14T15:50:32.298Z,16.41
2022-10-14T15:53:58.799Z,16.32
2022-10-14T15:57:26.233Z,16.22
2022-10-14T16:00:53.965Z,16.15
2022-10-14T16:04:24.996Z,16.09
2022-10-14T16:07:57.559Z,16.02
2022-10-14T16:11:30.120Z,15.96
2022-10-14T16:14:59.635Z,15.90
2022-10-14T16:18:29.625Z,15.87
2022-10-14T16:21:59.651Z,15.82
2022-10-14T16:25:34.546Z,15.78
2022-10-14T16:29:05.468Z,15.75
2022-10-14T16:32:36.259Z,15.70
2022-10-14T16:36:03.205Z,15.66
2022-10-14T16:39:30.725Z,15.59
2022-10-14T16:42:57.809Z,15.54
2022-10-14T16:46:45.408Z,15.46
2022-10-14T16:50:14.246Z,15.35
2022-10-14T16:53:45.716Z,15.25
2022-10-14T16:57:13.592Z,15.16
2022-10-14T17:00:42.888Z,15.10
2022-10-14T17:04:13.575Z,15.01
2022-10-14T17:07:40.987Z,14.94
2022-10-14T17:11:08.313Z,14.88
2022-10-14T17:14:37.928Z,14.83
2022-10-14T17:18:05.761Z,14.79
2022-10-14T17:21:32.854Z,14.76
2022-10-14T17:25:00.556Z,14.73
2022-10-14T17:28:27.347Z,14.73
2022-10-14T17:31:54.659Z,14.70
2022-10-14T17:35:21.303Z,14.67
2022-10-14T17:38:48.728Z,14.62
2022-10-14T17:42:15.724Z,14.56
2022-10-14T17:45:43.285Z,14.50
2022-10-14T17:49:15.313Z,14.42
2022-10-14T17:52:45.349Z,14.33
2022-10-14T17:56:15.270Z,14.23
2022-10-14T17:59:41.979Z,14.10
2022-10-14T18:03:13.025Z,13.96
2022-10-14T18:06:39.887Z,13.84
2022-10-14T18:10:08.430Z,13.75
2022-10-14T18:13:35.767Z,13.68
2022-10-14T18:17:03.276Z,13.61
2022-10-14T18:20:32.175Z,13.53
2022-10-14T18:23:59.589Z,13.46
2022-10-14T18:27:27.370Z,13.40
2022-10-14T18:30:53.904Z,13.35
2022-10-14T18:34:22.542Z,13.29
2022-10-14T18:37:52.833Z,13.21
2022-10-14T18:41:23.769Z,13.11
2022-10-14T18:44:51.942Z,13.04
2022-10-14T18:48:22.344Z,12.92
2022-10-14T18:51:49.495Z,12.79
2022-10-14T18:55:16.124Z,12.68
2022-10-14T18:58:43.012Z,12.61
2022-10-14T19:02:14.832Z,12.53
2022-10-14T19:05:42.404Z,12.48
2022-10-14T19:09:18.453Z,12.43
2022-10-14T19:12:45.259Z,12.36
2022-10-14T19:16:16.884Z,12.33
2022-10-14T19:19:44.954Z,12.29
2022-10-14T19:23:12.221Z,12.27
2022-10-14T19:26:43.180Z,12.26
2022-10-14T19:30:12.330Z,12.27
2022-10-14T19:33:40.970Z,12.25
2022-10-14T19:37:07.564Z,12.23
2022-10-14T19:40:34.076Z,12.19
2022-10-14T19:44:03.672Z,12.14
2022-10-14T19:47:31.008Z,12.08
2022-10-14T19:51:06.287Z,12.01
2022-10-14T19:54:34.280Z,11.95
2022-10-14T19:58:08.317Z,11.89
2022-10-14T20:01:35.699Z,11.85
2022-10-14T20:05:11.813Z,11.82
2022-10-14T20:08:41.397Z,11.80
2022-10-14T20:12:18.289Z,11.82
2022-10-14T20:15:56.398Z,11.86
2022-10-14T20:19:23.760Z,11.91
2022-10-14T20:22:50.757Z,11.96
2022-10-14T20:26:21.144Z,12.01
2022-10-14T20:29:54.201Z,12.05
2022-10-14T20:33:21.720Z,12.07
2022-10-14T20:36:49.570Z,12.08
2022-10-14T20:40:18.584Z,12.08
2022-10-14T20:43:48.327Z,12.08
2022-10-14T20:47:16.897Z,12.08
2022-10-14T20:50:47.264Z,12.07
2022-10-14T20:54:17.587Z,12.06
2022-10-14T20:57:44.920Z,12.04
2022-10-14T21:01:15.401Z,12.02
2022-10-14T21:04:43.989Z,12.02
2022-10-14T21:08:15.772Z,12.01
2022-10-14T21:11:43.839Z,12.02
2022-10-14T21:15:13.303Z,12.05
2022-10-14T21:18:40.142Z,12.10
2022-10-14T21:22:14.947Z,12.15
2022-10-14T21:25:42.590Z,12.20
2022-10-14T21:29:19.911Z,12.27
2022-10-14T21:33:00.625Z,12.33
2022-10-14T21:36:37.296Z,12.36
2022-10-14T21:40:19.079Z,12.40
2022-10-14T21:43:47.144Z,12.41
2022-10-14T21:47:20.510Z,12.40
2022-10-14T21:50:49.497Z,12.40
2022-10-14T21:54:28.318Z,12.38
2022-10-14T21:57:56.353Z,12.36
2022-10-14T22:01:26.377Z,12.36
2022-10-14T22:04:53.432Z,12.37
2022-10-14T22:08:24.226Z,12.39
2022-10-14T22:11:55.161Z,12.42
2022-10-14T22:15:22.109Z,12.47
2022-10-14T22:18:53.889Z,12.51
2022-10-14T22:22:21.138Z,12.56
2022-10-14T22:25:47.771Z,12.62
2022-10-14T22:29:16.570Z,12.68
2022-10-14T22:32:47.306Z,12.75
2022-10-14T22:36:21.058Z,12.81
2022-10-14T22:39:53.265Z,12.85
2022-10-14T22:43:20.448Z,12.88
2022-10-14T22:46:49.462Z,12.91
2022-10-14T22:50:19.151Z,12.90
2022-10-14T22:53:49.817Z,12.86
2022-10-14T22:57:17.277Z,12.90
2022-10-14T23:00:44.190Z,12.88
2022-10-14T23:04:12.412Z,12.85
2022-10-14T23:07:41.769Z,12.86
2022-10-14T23:11:10.341Z,12.86
2022-10-14T23:14:37.222Z,12.87
2022-10-14T23:18:05.363Z,12.90
2022-10-14T23:21:34.033Z,12.95
2022-10-14T23:25:01.171Z,13.00
2022-10-14T23:28:28.576Z,13.02
2022-10-14T23:31:58.443Z,13.07
2022-10-14T23:35:26.282Z,13.11
2022-10-14T23:38:56.311Z,13.15
2022-10-14T23:42:23.159Z,13.18
2022-10-14T23:49:28.207Z,13.21
2022-10-14T23:52:54.880Z,13.20
2022-10-14T23:56:21.687Z,13.18
2022-10-14T23:59:48.423Z,13.15
